Time;durP1;ratioP1;P1;durP2;ratioP2;P2;SDS_P1;SDS_P2;PMS_P1;PMS_P2;Temp;Humidity;BMP_temperature;BMP_pressure;BME280_temperature;BME280_humidity;BME280_pressure;Samples;Min_cycle;Max_cycle;Signal;HPM_P1;HPM_P2
2022/02/04 00:09:03;;;;;;;5.07;4.57;;;;;;;14.40;44.47;96392.78;6288812;22;20186;-85
2022/02/04 00:20:51;;;;;;;5.50;4.50;;;;;;;14.27;44.90;96460.47;6289784;22;20578;-85
2022/02/04 00:23:32;;;;;;;5.40;4.87;;;;;;;14.89;44.47;96521.09;6284768;22;20185;-86
2022/02/04 00:31:44;;;;;;;4.90;4.37;;;;;;;17.54;44.41;96975.75;6278920;22;20190;-83
2022/02/04 00:33:50;;;;;;;5.00;4.50;;;;;;;13.31;44.88;96220.03;6276882;22;20263;-85
2022/02/04 00:36:44;;;;;;;4.90;4.40;;;;;;;13.16;44.83;96147.91;6280848;22;20224;-84
2022/02/04 00:39:26;;;;;;;4.83;4.33;;;;;;;11.83;44.92;96018.06;6285631;22;20212;-86
2022/02/04 00:42:10;;;;;;;4.97;4.43;;;;;;;14.95;44.46;96518.81;6265276;22;20166;-86
2022/02/04 00:44:39;;;;;;;4.87;4.37;;;;;;;14.55;44.39;96390.84;6255135;22;20196;-86
2022/02/04 00:47:28;;;;;;;4.70;4.30;;;;;;;15.14;44.43;96500.97;6266857;22;20194;-86
2022/02/04 00:50:08;;;;;;;4.87;4.37;;;;;;;14.80;44.22;96576.38;6280041;22;20177;-85
2022/02/04 00:52:46;;;;;;;4.67;4.17;;;;;;;14.81;45.14;96545.22;6283370;22;20163;-86
2022/02/04 01:06:24;;;;;;;5.00;4.53;;;;;;;11.95;44.72;95984.19;6304781;22;20190;-86
2022/02/04 01:41:37;;;;;;;4.30;3.90;;;;;;;15.03;44.66;96566.34;6314986;22;20722;-85
2022/02/04 01:44:27;;;;;;;4.57;4.03;;;;;;;15.47;44.67;96611.13;6258048;22;20217;-85
2022/02/04 01:46:56;;;;;;;3.70;3.40;;;;;;;17.60;44.31;97004.78;6243707;22;20249;-85
2022/02/04 01:49:34;;;;;;;4.57;4.07;;;;;;;17.51;44.35;97027.31;6251173;22;20228;-85
2022/02/04 01:52:04;;;;;;;4.00;3.53;;;;;;;14.86;44.70;96496.53;6228272;22;20170;-86
2022/02/04 01:54:43;;;;;;;4.40;4.00;;;;;;;13.74;44.22;96379.09;6253192;22;20167;-85
2022/02/04 01:57:16;;;;;;;4.10;3.80;;;;;;;10.86;44.35;95815.19;6226801;22;20198;-86
2022/02/04 01:59:44;;;;;;;4.83;4.10;;;;;;;13.19;44.66;96222.06;6249702;22;20270;-86
2022/02/04 02:02:14;;;;;;;4.60;4.00;;;;;;;15.02;44.17;96531.75;6274458;22;20194;-85
2022/02/04 02:04:47;;;;;;;4.20;3.80;;;;;;;17.72;44.85;97045.88;6223961;22;20618;-85
2022/02/04 02:07:39;;;;;;;;;;;;;;;;;;;;;
2022/02/04 02:10:16;;;;;;;4.37;3.97;;;;;;;11.69;44.26;95982.25;6258339;22;20179;-85
2022/02/04 02:15:36;;;;;;;4.20;3.73;;;;;;;14.54;44.70;96408.47;6275111;22;20181;-85
2022/02/04 02:49:00;;;;;;;3.77;3.20;;;;;;;15.83;44.53;96689.34;6278532;22;20221;-85
2022/02/04 02:51:57;;;;;;;3.60;3.30;;;;;;;17.66;44.81;97039.72;6282335;22;20174;-86
2022/02/04 02:59:50;;;;;;;3.57;3.27;;;;;;;14.57;44.87;96437.25;6275911;22;20182;-85
2022/02/04 03:02:22;;;;;;;4.43;4.03;;;;;;;14.57;44.69;96527.41;6282822;22;20175;-85
2022/02/04 03:04:54;;;;;;;3.73;3.43;;;;;;;12.72;45.12;96143.56;6276874;22;20156;-85
2022/02/04 03:07:35;;;;;;;4.23;3.83;;;;;;;14.79;44.58;96562.84;6274969;22;20195;-85
2022/02/04 03:10:08;;;;;;;3.60;3.30;;;;;;;15.70;44.73;96605.25;6279214;22;20238;-85
2022/02/04 03:12:36;;;;;;;4.03;3.23;;;;;;;15.94;44.68;96674.56;6273831;22;20225;-85
2022/02/04 03:15:10;;;;;;;3.57;3.27;;;;;;;10.64;44.77;95776.53;6274796;22;20175;-85
2022/02/04 03:47:21;;;;;;;3.30;3.00;;;;;;;16.82;44.87;96885.03;6270080;22;20589;-86
2022/02/04 03:49:48;;;;;;;3.13;2.90;;;;;;;14.35;45.18;96482.69;6279717;22;20174;-85
2022/02/04 03:52:19;;;;;;;3.37;3.00;;;;;;;13.94;44.48;96358.88;6256602;22;20237;-86
2022/02/04 03:54:51;;;;;;;3.30;3.00;;;;;;;14.27;44.83;96430.97;6304817;22;20225;-83
2022/02/04 03:57:21;;;;;;;3.13;2.83;;;;;;;11.99;44.83;96020.44;6262193;22;20194;-85
2022/02/04 03:59:57;;;;;;;3.10;2.80;;;;;;;12.93;44.87;96231.84;6226655;22;20179;-85
2022/02/04 04:02:24;;;;;;;3.57;3.27;;;;;;;16.50;45.04;96904.88;6273836;22;20167;-85
2022/02/04 04:04:56;;;;;;;3.30;3.00;;;;;;;14.94;44.82;96563.47;6249496;22;20513;-85
2022/02/04 04:07:41;;;;;;;3.57;3.23;;;;;;;12.03;44.57;96035.72;6250811;22;20645;-85
2022/02/04 04:10:25;;;;;;;3.43;3.13;;;;;;;14.95;44.82;96517.09;6255230;22;20175;-86
2022/02/04 04:13:00;;;;;;;3.30;3.00;;;;;;;14.44;44.70;96461.97;6274860;22;20178;-85
2022/02/04 04:15:41;;;;;;;3.20;2.90;;;;;;;12.94;44.36;96294.94;6227963;22;20180;-85
2022/02/04 04:18:12;;;;;;;2.90;2.60;;;;;;;12.75;44.89;96227.75;6227329;22;20202;-86
2022/02/04 04:21:01;;;;;;;2.90;2.70;;;;;;;19.22;44.62;97264.16;6247849;22;20221;-85
2022/02/04 04:23:28;;;;;;;3.13;2.83;;;;;;;13.62;44.98;96368.47;6248235;22;20614;-86
2022/02/04 04:25:58;;;;;;;3.30;3.00;;;;;;;14.15;44.57;96475.94;6273103;22;20178;-84
2022/02/04 04:28:28;;;;;;;3.23;2.93;;;;;;;15.04;44.60;96600.94;6273968;22;20325;-85
2022/02/04 04:30:57;;;;;;;2.87;2.67;;;;;;;13.97;44.96;96417.09;6249380;22;20240;-86
2022/02/04 04:33:30;;;;;;;2.83;2.53;;;;;;;14.87;44.52;96596.03;6248782;22;20257;-85
2022/02/04 04:35:56;;;;;;;3.00;2.80;;;;;;;12.63;44.46;96201.16;6224754;22;20253;-83
2022/02/04 04:38:38;;;;;;;3.40;3.10;;;;;;;18.26;44.57;97153.78;6248535;22;20579;-85
2022/02/04 04:41:21;;;;;;;3.17;2.80;;;;;;;13.15;44.90;96346.31;6249625;22;20174;-86
2022/02/04 04:44:59;;;;;;;2.90;2.70;;;;;;;11.25;44.58;95946.72;6276419;22;20171;-85
2022/02/04 05:28:59;;;;;;;3.13;2.83;;;;;;;13.24;44.64;96283.63;6250679;22;20495;-85
2022/02/04 05:31:36;;;;;;;3.00;2.80;;;;;;;15.31;45.05;96732.81;6276058;22;20170;-85
2022/02/04 05:34:03;;;;;;;2.90;2.70;;;;;;;14.84;44.83;96649.91;6250385;22;20194;-86
2022/02/04 05:36:30;;;;;;;2.73;2.53;;;;;;;14.96;44.82;96599.81;6249916;22;20256;-85
2022/02/04 05:39:05;;;;;;;2.70;2.50;;;;;;;15.54;44.85;96780.22;6224905;22;20273;-86
2022/02/04 05:41:39;;;;;;;2.70;2.50;;;;;;;14.97;45.65;96684.13;6228220;22;20544;-87
2022/02/04 05:44:09;;;;;;;2.93;2.73;;;;;;;14.75;45.33;96663.81;6226815;22;20175;-85
2022/02/04 05:49:35;;;;;;;2.70;2.50;;;;;;;13.15;44.91;96300.91;6266291;22;20170;-87
2022/02/04 05:52:15;;;;;;;2.73;2.53;;;;;;;14.49;44.78;96528.75;6276403;22;20178;-85
2022/02/04 05:55:00;;;;;;;3.97;2.10;;;;;;;14.19;44.39;96593.16;6278554;22;20155;-85
2022/02/04 05:57:44;;;;;;;2.83;2.63;;;;;;;16.20;45.02;96824.25;6283736;22;20190;-86
2022/02/04 06:03:13;;;;;;;3.03;2.80;;;;;;;12.16;44.74;96186.50;6280396;22;20831;-85
2022/02/04 06:11:08;;;;;;;3.00;2.80;;;;;;;14.68;44.75;96653.44;6278400;22;20171;-85
2022/02/04 06:24:22;;;;;;;2.80;2.60;;;;;;;15.51;45.14;96719.31;6278688;22;20167;-85
2022/02/04 06:26:51;;;;;;;2.77;2.53;;;;;;;13.24;45.12;96429.06;6274227;22;20252;-85
2022/02/04 06:29:20;;;;;;;2.63;2.43;;;;;;;17.33;44.85;97132.38;6276217;22;20167;-85
2022/02/04 06:31:47;;;;;;;3.03;2.73;;;;;;;13.07;45.37;96355.19;6303380;22;20246;-85
2022/02/04 06:34:14;;;;;;;2.67;2.47;;;;;;;17.91;45.21;97159.25;6303137;22;20187;-83
2022/02/04 06:36:41;;;;;;;2.60;2.40;;;;;;;15.12;45.07;96703.34;6251539;22;20247;-78
2022/02/04 06:39:07;;;;;;;2.47;2.27;;;;;;;18.17;45.33;97189.94;6279018;22;20214;-79
2022/02/04 06:41:34;;;;;;;2.60;2.40;;;;;;;19.08;45.21;97348.56;6305109;22;20266;-80
2022/02/04 06:44:02;;;;;;;2.70;2.50;;;;;;;16.04;45.32;96821.06;6305804;22;20202;-79
2022/02/04 06:46:29;;;;;;;2.10;2.00;;;;;;;17.10;45.60;97014.69;6254587;22;20182;-82
2022/02/04 06:48:56;;;;;;;2.40;2.20;;;;;;;19.06;45.48;97361.25;6255161;22;20256;-80
2022/02/04 06:51:22;;;;;;;2.50;2.30;;;;;;;14.92;45.39;96645.16;6305140;22;20960;-81
2022/02/04 06:53:53;;;;;;;2.57;2.37;;;;;;;19.03;45.48;97366.22;6282008;22;20208;-80
2022/02/04 06:56:20;;;;;;;9.87;2.30;;;;;;;18.48;45.30;97281.00;6305170;22;20232;-82
2022/02/04 06:58:46;;;;;;;4.03;2.20;;;;;;;18.33;45.29;97249.88;6253986;22;20249;-81
2022/02/04 07:01:13;;;;;;;2.57;2.37;;;;;;;19.04;45.16;97364.56;6253774;22;20268;-80
2022/02/04 07:03:39;;;;;;;2.10;2.00;;;;;;;18.53;45.13;97278.63;6280000;22;20220;-81
2022/02/04 07:06:09;;;;;;;2.57;2.37;;;;;;;17.74;45.41;97147.59;6305984;22;20178;-80
2022/02/04 07:09:05;;;;;;;3.97;2.30;;;;;;;18.49;45.07;97279.31;6281310;22;20198;-79
2022/02/04 07:14:38;;;;;;;4.03;2.40;;;;;;;18.29;45.07;97257.34;6288939;22;20170;-80
2022/02/04 07:19:49;;;;;;;3.17;2.87;;;;;;;18.73;45.02;97333.66;6288402;22;20266;-80
2022/02/04 07:22:26;;;;;;;4.10;2.57;;;;;;;18.47;45.40;97298.78;6305402;22;20258;-80
2022/02/04 07:24:56;;;;;;;3.30;3.00;;;;;;;16.84;45.43;97006.91;6281853;22;20671;-79
2022/02/04 07:27:23;;;;;;;3.07;2.70;;;;;;;19.02;45.29;97389.09;6281333;22;20234;-78
2022/02/04 07:29:52;;;;;;;3.10;2.80;;;;;;;18.23;45.40;97253.75;6280043;22;20206;-79
2022/02/04 07:32:25;;;;;;;2.93;2.70;;;;;;;18.49;45.27;97299.66;6279362;22;20249;-79
2022/02/04 07:42:53;;;;;;;3.13;2.83;;;;;;;18.08;45.34;97231.94;6287690;22;20273;-77
2022/02/04 07:45:21;;;;;;;3.33;3.03;;;;;;;18.29;45.31;97263.28;6278817;22;20254;-80
2022/02/04 07:47:50;;;;;;;3.37;2.93;;;;;;;18.66;45.49;97331.72;6304280;22;20248;-79
2022/02/04 07:50:21;;;;;;;2.83;2.57;;;;;;;18.02;45.45;97217.34;6279724;22;20233;-79
2022/02/04 07:52:51;;;;;;;3.20;2.80;;;;;;;18.27;45.21;97278.47;6280528;22;20205;-80
2022/02/04 07:55:17;;;;;;;3.80;3.00;;;;;;;16.22;45.39;96913.03;6278975;22;20257;-79
2022/02/04 07:57:44;;;;;;;3.20;2.90;;;;;;;17.21;45.48;97084.53;6278897;22;20985;-78
2022/02/04 08:00:14;;;;;;;3.60;3.30;;;;;;;18.64;45.33;97329.13;6304590;22;20190;-79
2022/02/04 08:02:41;;;;;;;3.23;2.93;;;;;;;18.74;45.33;97353.25;6279136;22;20213;-80
2022/02/04 08:05:11;;;;;;;2.80;2.60;;;;;;;17.75;45.18;97180.69;6275956;22;20217;-79
2022/02/04 08:07:47;;;;;;;3.03;2.83;;;;;;;18.98;45.05;97390.66;6253594;22;20464;-80
2022/02/04 08:18:31;;;;;;;3.10;2.80;;;;;;;18.06;45.12;97241.22;6305740;22;20190;-78
2022/02/04 08:26:25;;;;;;;3.17;2.80;;;;;;;18.44;45.32;97303.75;6305132;22;20165;-79
2022/02/04 08:31:38;;;;;;;2.97;2.67;;;;;;;17.87;45.20;97204.03;6330916;22;20186;-79
2022/02/04 08:51:06;;;;;;;2.80;2.60;;;;;;;18.38;45.44;97295.88;6305478;22;20196;-80
2022/02/04 08:55:37;;;;;;;2.70;2.50;;;;;;;18.80;45.42;97361.09;6304498;22;20190;-79
2022/02/04 08:58:16;;;;;;;2.40;2.20;;;;;;;19.01;45.37;97405.19;6280115;22;20708;-79
2022/02/04 09:00:59;;;;;;;2.87;2.47;;;;;;;19.02;45.37;97404.38;6330052;22;20524;-81
2022/02/04 09:06:16;;;;;;;2.53;2.30;;;;;;;18.40;45.46;97286.59;6286440;22;20238;-80
2022/02/04 09:08:46;;;;;;;2.43;2.23;;;;;;;18.66;45.39;97339.34;6278057;22;20226;-80
2022/02/04 09:11:27;;;;;;;2.90;2.50;;;;;;;18.65;45.12;97330.00;6303588;22;20186;-79
2022/02/04 09:19:28;;;;;;;4.70;4.20;;;;;;;17.69;44.65;97167.75;6285255;22;20201;-78
2022/02/04 09:24:24;;;;;;;4.17;3.73;;;;;;;17.10;44.63;97064.59;6303882;22;20595;-81
2022/02/04 09:26:54;;;;;;;3.60;3.30;;;;;;;18.71;45.07;97335.31;6302579;22;20222;-82
2022/02/04 09:29:21;;;;;;;4.20;3.87;;;;;;;18.12;44.84;97236.34;6302957;22;20212;-81
2022/02/04 09:31:47;;;;;;;3.80;3.13;;;;;;;19.07;44.81;97393.53;6276767;22;20213;-80
2022/02/04 09:34:14;;;;;;;3.30;3.00;;;;;;;19.07;45.05;97393.53;6329531;22;20162;-79
2022/02/04 09:36:41;;;;;;;3.37;3.10;;;;;;;17.49;45.17;97119.50;6276497;22;20206;-80
2022/02/04 09:39:08;;;;;;;3.40;3.10;;;;;;;16.58;45.08;96959.31;6276040;22;20163;-80
2022/02/04 09:41:35;;;;;;;3.87;3.30;;;;;;;18.51;45.13;97293.84;6277978;22;20210;-82
2022/02/04 09:44:02;;;;;;;3.50;3.20;;;;;;;18.58;45.01;97307.66;6279610;22;20209;-80
2022/02/04 09:46:36;;;;;;;4.03;3.23;;;;;;;19.10;45.15;97401.28;6281614;22;20162;-80
2022/02/04 09:49:03;;;;;;;3.10;2.90;;;;;;;15.79;44.91;96836.97;6278051;22;20178;-80
2022/02/04 10:04:21;;;;;;;3.00;2.77;;;;;;;19.11;45.09;97405.59;6305310;22;20667;-81
2022/02/04 10:06:58;;;;;;;2.73;2.53;;;;;;;19.13;45.03;97403.94;6307630;22;20225;-79
2022/02/04 10:17:23;;;;;;;2.93;2.73;;;;;;;18.06;45.02;97208.16;6280418;22;20210;-81
2022/02/04 10:19:53;;;;;;;3.00;2.80;;;;;;;17.19;45.19;97052.25;6285317;22;20189;-80
2022/02/04 10:22:28;;;;;;;3.13;2.50;;;;;;;18.79;44.93;97355.13;6279895;22;20678;-84
2022/02/04 10:24:55;;;;;;;2.80;2.60;;;;;;;19.16;45.10;97393.03;6256227;22;20162;-78
2022/02/04 10:27:22;;;;;;;2.87;2.67;;;;;;;17.05;45.09;97028.03;6304504;22;20294;-81
2022/02/04 10:30:03;;;;;;;2.70;2.50;;;;;;;18.79;45.33;97328.81;6278854;22;20209;-81
2022/02/04 10:32:30;;;;;;;3.03;2.73;;;;;;;19.16;45.05;97383.69;6255956;22;20163;-81
2022/02/04 10:35:13;;;;;;;2.67;2.47;;;;;;;19.16;44.98;97381.13;6304336;22;20174;-81
2022/02/04 10:37:55;;;;;;;2.50;2.30;;;;;;;18.11;45.10;97201.53;6305845;22;20206;-80
2022/02/04 10:40:24;;;;;;;2.50;2.30;;;;;;;18.80;45.13;97315.28;6255375;22;20196;-81
2022/02/04 10:48:33;;;;;;;2.90;2.70;;;;;;;17.93;45.09;97145.81;6285611;22;20278;-80
2022/02/04 11:04:14;;;;;;;2.43;2.23;;;;;;;18.53;45.11;97223.50;6276380;22;20273;-78
2022/02/04 11:12:03;;;;;;;2.23;2.03;;;;;;;18.81;44.87;97281.38;6306232;22;20185;-80
2022/02/04 11:53:56;;;;;;;2.37;2.17;;;;;;;17.97;44.82;97038.31;6317940;22;20202;-80
2022/02/04 11:56:23;;;;;;;1.97;1.87;;;;;;;17.34;45.16;96928.41;6262345;22;20194;-78
2022/02/04 11:59:00;;;;;;;2.10;2.00;;;;;;;18.52;45.18;97127.63;6278023;22;20178;-79
2022/02/04 12:01:41;;;;;;;2.20;2.00;;;;;;;18.83;44.99;97206.75;6304942;22;20205;-82
2022/02/04 12:04:26;;;;;;;2.03;1.93;;;;;;;18.53;45.05;97148.88;6280021;22;20206;-81
2022/02/04 12:06:56;;;;;;;2.10;2.00;;;;;;;19.09;44.86;97235.66;6255514;22;20231;-88
2022/02/04 12:09:39;;;;;;;2.17;2.00;;;;;;;15.87;45.35;96763.81;6281227;22;20227;-89
2022/02/04 12:12:09;;;;;;;2.20;2.07;;;;;;;18.12;45.12;97045.63;6277159;22;20158;-88
2022/02/04 12:14:38;;;;;;;1.97;1.87;;;;;;;13.47;45.07;96404.03;6280152;22;20227;-89
2022/02/04 12:17:12;;;;;;;2.17;2.00;;;;;;;19.22;45.18;97220.00;6278052;22;20279;-89
2022/02/04 12:19:52;;;;;;;2.90;2.00;;;;;;;15.94;45.30;96697.38;6303751;22;20161;-89
2022/02/04 12:22:49;;;;;;;2.30;2.10;;;;;;;19.23;45.09;97224.28;6280406;22;20182;-89
2022/02/04 12:26:02;;;;;;;2.20;2.00;;;;;;;19.21;45.24;97214.03;6330189;22;20189;-88
2022/02/04 12:28:35;;;;;;;3.53;2.07;;;;;;;19.23;45.22;97204.78;6277516;22;20563;-89
2022/02/04 12:31:08;;;;;;;3.43;2.30;;;;;;;16.02;45.13;96728.94;6302203;22;20177;-89
2022/02/04 12:33:51;;;;;;;2.47;2.00;;;;;;;16.22;45.17;96678.16;6302592;22;20174;-88
2022/02/04 12:36:32;;;;;;;2.17;2.07;;;;;;;12.86;45.08;96148.41;6302907;22;20165;-89
2022/02/04 13:44:03;;;;;;;1.70;1.60;;;;;;;18.57;44.74;96988.72;6282323;22;20526;-90
2022/02/04 13:47:10;;;;;;;2.17;2.00;;;;;;;19.49;44.89;97129.19;6289170;22;20253;-89
2022/02/04 14:35:53;;;;;;;1.57;1.47;;;;;;;18.88;45.05;96990.50;6212744;23;20513;-88
2022/02/04 14:50:16;;;;;;;1.87;1.70;;;;;;;19.16;45.17;97037.25;6157129;23;20677;-87
2022/02/04 14:52:26;;;;;;;1.70;1.60;;;;;;;19.16;44.93;97032.16;6155402;23;20201;-86
2022/02/04 15:05:48;;;;;;;1.70;1.60;;;;;;;18.82;44.96;96972.50;6154782;23;20204;-89
2022/02/04 15:08:19;;;;;;;1.70;1.60;;;;;;;18.83;45.01;96984.44;6131355;23;20199;-87
2022/02/04 15:10:48;;;;;;;1.83;1.73;;;;;;;19.16;45.09;97038.97;6152548;23;20244;-87
2022/02/04 15:13:17;;;;;;;1.60;1.50;;;;;;;19.14;45.26;97035.50;6152863;23;20181;-87
2022/02/04 15:15:43;;;;;;;2.00;1.57;;;;;;;19.18;45.04;97050.91;6153306;23;20196;-88
2022/02/04 15:18:11;;;;;;;1.80;1.70;;;;;;;18.69;45.29;96963.66;6152375;23;20197;-87
2022/02/04 15:20:37;;;;;;;1.70;1.60;;;;;;;19.08;45.27;97032.75;6128042;23;20260;-87
2022/02/04 15:23:05;;;;;;;1.70;1.60;;;;;;;19.07;45.17;97039.50;6152101;23;20265;-87
2022/02/04 15:25:32;;;;;;;1.63;1.53;;;;;;;19.08;45.17;97040.38;6152866;23;20200;-88
2022/02/04 15:30:46;;;;;;;1.60;1.50;;;;;;;18.95;45.24;97012.81;6155900;23;20169;-86
2022/02/04 15:33:13;;;;;;;1.57;1.47;;;;;;;19.17;45.61;97046.66;6128748;23;20212;-87
2022/02/04 15:35:40;;;;;;;1.80;1.70;;;;;;;19.01;45.40;97016.41;6150563;23;20281;-87
2022/02/04 15:38:08;;;;;;;1.97;1.70;;;;;;;18.96;45.32;97014.53;6151974;23;20240;-87
2022/02/04 15:40:35;;;;;;;1.80;1.70;;;;;;;18.92;45.62;97002.53;6131023;23;20256;-87
2022/02/04 15:43:04;;;;;;;1.90;1.80;;;;;;;19.13;45.29;97044.78;6132126;23;20205;-87
2022/02/04 16:04:05;;;;;;;1.73;1.63;;;;;;;18.82;45.61;96995.41;6103848;23;20205;-86
2022/02/04 16:06:31;;;;;;;1.70;1.60;;;;;;;18.90;45.72;97009.25;6075692;23;20164;-87
2022/02/04 16:08:58;;;;;;;1.77;1.67;;;;;;;18.96;45.71;97025.59;6119379;23;20239;-87
2022/02/04 16:14:18;;;;;;;1.90;1.80;;;;;;;19.04;45.61;97019.03;6152181;23;20165;-87
2022/02/04 16:16:51;;;;;;;1.83;1.73;;;;;;;18.88;45.64;96981.22;6130955;23;20197;-84
2022/02/04 16:19:29;;;;;;;1.80;1.70;;;;;;;18.94;45.45;97000.88;6156419;23;20236;-86
2022/02/04 16:29:49;;;;;;;1.63;1.53;;;;;;;18.55;45.54;96933.47;6154633;23;20513;-86
2022/02/04 16:32:16;;;;;;;1.83;1.73;;;;;;;18.65;45.42;96948.22;6151775;23;20181;-86
2022/02/04 16:34:50;;;;;;;1.70;1.60;;;;;;;18.85;45.55;96982.78;6152385;23;20272;-86
2022/02/04 16:37:26;;;;;;;1.50;1.40;;;;;;;18.82;45.36;96981.03;6154048;23;20255;-87
2022/02/04 16:39:53;;;;;;;1.80;1.70;;;;;;;18.86;45.70;96987.09;6130035;23;20197;-86
2022/02/04 16:42:19;;;;;;;1.93;1.70;;;;;;;18.95;45.61;97007.72;6132036;23;20736;-83
2022/02/04 16:44:46;;;;;;;1.73;1.63;;;;;;;18.81;45.79;96992.03;6156415;23;20162;-86
2022/02/04 16:47:15;;;;;;;1.80;1.70;;;;;;;18.80;45.82;96990.28;6181372;23;20517;-86
2022/02/04 16:49:42;;;;;;;1.80;1.70;;;;;;;18.98;45.60;97029.03;6157299;23;20212;-85
2022/02/04 16:52:09;;;;;;;1.90;1.77;;;;;;;19.01;45.76;97034.22;6156368;23;20173;-86
2022/02/04 16:54:37;;;;;;;1.77;1.67;;;;;;;18.89;45.75;97018.56;6157562;23;20264;-85
2022/02/04 17:26:40;;;;;;;1.70;1.60;;;;;;;18.90;45.64;97042.38;6238422;22;20456;-88
2022/02/04 17:29:08;;;;;;;1.70;1.60;;;;;;;18.71;45.83;97005.25;6190451;22;20880;-88
2022/02/04 18:14:46;;;;;;;2.87;2.23;;;;;;;18.32;45.08;96975.09;6329260;22;20283;-89
2022/02/04 18:17:14;;;;;;;2.17;2.00;;;;;;;19.15;44.97;97100.88;6284423;22;20189;-89
2022/02/04 18:19:41;;;;;;;1.93;1.83;;;;;;;18.67;45.03;97021.25;6258918;22;20206;-88
2022/02/04 18:22:08;;;;;;;2.27;2.07;;;;;;;19.24;45.07;97111.38;6259317;22;20201;-87
2022/02/04 18:24:34;;;;;;;2.33;2.13;;;;;;;19.24;45.13;97108.81;6258750;22;20237;-85
2022/02/04 18:27:01;;;;;;;1.97;1.80;;;;;;;19.08;45.13;97078.59;6336442;22;20213;-84
2022/02/04 18:51:43;;;;;;;1.90;1.80;;;;;;;18.69;45.05;96991.66;6234168;22;20590;-87
2022/02/04 18:54:26;;;;;;;1.77;1.67;;;;;;;19.00;45.45;97037.59;6293559;22;20269;-87
2022/02/04 18:59:26;;;;;;;2.10;1.90;;;;;;;19.19;45.04;97082.34;6282709;22;20205;-87
2022/02/04 19:01:53;;;;;;;2.00;1.80;;;;;;;18.70;44.92;96989.94;6282483;22;20202;-87
2022/02/04 19:04:27;;;;;;;1.70;1.60;;;;;;;19.13;45.02;97074.53;6256852;22;20232;-86
2022/02/04 19:07:02;;;;;;;2.37;2.17;;;;;;;19.12;45.10;97067.66;6284665;22;20162;-87
2022/02/04 19:09:28;;;;;;;1.90;1.80;;;;;;;19.03;44.82;97047.00;6260727;22;20190;-87
2022/02/04 19:12:02;;;;;;;1.90;1.80;;;;;;;18.98;45.02;97063.84;6255320;22;20193;-87
2022/02/04 19:17:16;;;;;;;2.03;1.87;;;;;;;18.95;45.05;97053.56;6287394;22;20188;-87
2022/02/04 19:19:55;;;;;;;1.90;1.80;;;;;;;19.07;44.89;97067.53;6309513;22;20193;-87
2022/02/04 19:22:35;;;;;;;1.80;1.70;;;;;;;19.25;45.31;97101.25;6263223;22;20174;-83
2022/02/04 19:25:05;;;;;;;1.70;1.60;;;;;;;19.25;45.16;97100.38;6284803;22;20189;-85
2022/02/04 19:27:32;;;;;;;1.57;1.47;;;;;;;18.97;45.15;97065.53;6307954;22;20868;-86
2022/02/04 19:30:01;;;;;;;1.90;1.80;;;;;;;19.14;45.19;97096.63;6257188;22;20205;-84
2022/02/04 19:32:27;;;;;;;1.87;1.77;;;;;;;18.71;45.21;97030.72;6284920;22;20171;-90
2022/02/04 19:34:54;;;;;;;1.70;1.60;;;;;;;19.02;45.05;97080.94;6283359;22;20556;-86
2022/02/04 19:37:23;;;;;;;2.00;1.90;;;;;;;18.80;45.02;97048.81;6308211;22;20217;-88
2022/02/04 19:39:50;;;;;;;1.90;1.80;;;;;;;18.93;45.02;97071.34;6285365;22;20174;-89
2022/02/04 19:45:20;;;;;;;1.80;1.70;;;;;;;19.03;45.06;97083.53;6293371;22;20175;-85
2022/02/04 20:28:04;;;;;;;1.63;1.53;;;;;;;18.53;45.72;97055.56;6269220;22;20343;-85
2022/02/04 20:30:31;;;;;;;2.00;1.80;;;;;;;18.86;45.43;97086.38;6255501;22;20272;-85
2022/02/04 20:32:58;;;;;;;1.90;1.80;;;;;;;18.23;45.37;96987.53;6278116;22;20223;-85
2022/02/04 20:35:24;;;;;;;1.67;1.57;;;;;;;18.48;45.48;97030.78;6278433;22;20263;-85
2022/02/04 20:37:52;;;;;;;1.70;1.60;;;;;;;18.39;45.68;96998.28;6252826;22;20198;-85
2022/02/04 20:40:29;;;;;;;1.73;1.63;;;;;;;18.72;45.52;97050.28;6279306;22;20221;-86
2022/02/04 20:42:56;;;;;;;1.57;1.47;;;;;;;18.45;45.23;97011.22;6257127;22;20560;-87
2022/02/04 20:45:22;;;;;;;1.87;1.77;;;;;;;18.24;45.59;96959.59;6303451;22;20174;-87
2022/02/04 20:47:55;;;;;;;1.67;1.57;;;;;;;18.38;45.52;96978.72;6303716;22;20230;-87
2022/02/04 20:50:27;;;;;;;1.80;1.70;;;;;;;18.12;45.53;96939.69;6279781;22;20162;-86
2022/02/04 20:52:54;;;;;;;1.90;1.80;;;;;;;18.55;45.56;97013.22;6278484;22;20503;-86
2022/02/04 20:55:21;;;;;;;1.77;1.67;;;;;;;18.79;45.28;97048.78;6280871;22;20556;-87
2022/02/04 20:57:53;;;;;;;1.60;1.50;;;;;;;18.83;45.34;97056.56;6254108;22;20198;-87
2022/02/04 21:00:26;;;;;;;1.60;1.50;;;;;;;18.93;45.54;97067.91;6256872;22;20170;-87
2022/02/04 21:02:53;;;;;;;1.77;1.67;;;;;;;18.98;45.32;97066.41;6281226;22;20820;-86
2022/02/04 21:05:22;;;;;;;1.63;1.53;;;;;;;19.13;45.43;97100.84;6255255;22;20217;-87
2022/02/04 21:15:52;;;;;;;1.60;1.50;;;;;;;18.89;45.40;97083.94;6309453;22;20163;-86
2022/02/04 21:18:18;;;;;;;1.70;1.60;;;;;;;19.09;45.37;97114.28;6254059;22;20649;-86
2022/02/04 21:20:45;;;;;;;1.60;1.50;;;;;;;18.85;45.61;97069.34;6279914;22;20236;-86
2022/02/04 21:23:11;;;;;;;1.73;1.63;;;;;;;18.65;45.37;97035.59;6333003;22;20773;-87
2022/02/04 21:25:38;;;;;;;1.70;1.60;;;;;;;18.20;45.39;96970.47;6253408;22;20190;-86
2022/02/04 21:28:10;;;;;;;1.80;1.70;;;;;;;19.07;45.66;97113.38;6305401;22;20260;-87
2022/02/04 21:30:38;;;;;;;1.47;1.37;;;;;;;19.03;45.47;97113.22;6279888;22;20906;-86
2022/02/04 21:33:12;;;;;;;1.43;1.33;;;;;;;18.86;45.48;97088.91;6254310;22;20257;-86
2022/02/04 21:38:23;;;;;;;1.60;1.50;;;;;;;18.87;45.63;97101.69;6312143;22;20508;-87
2022/02/04 21:40:50;;;;;;;1.43;1.33;;;;;;;18.76;45.65;97066.50;6306259;22;20241;-87
2022/02/04 21:43:18;;;;;;;1.50;1.40;;;;;;;18.79;45.44;97070.03;6255914;22;20232;-87
2022/02/04 21:45:48;;;;;;;1.57;1.47;;;;;;;18.50;45.65;97017.28;6282128;22;20209;-86
2022/02/04 21:48:16;;;;;;;1.40;1.30;;;;;;;18.72;45.70;97059.59;6308056;22;20252;-86
2022/02/04 21:50:49;;;;;;;1.50;1.40;;;;;;;18.21;45.66;96979.84;6255510;22;20201;-87
2022/02/04 21:53:16;;;;;;;1.80;1.70;;;;;;;18.07;45.67;96964.13;6309070;22;20220;-86
2022/02/04 21:55:46;;;;;;;1.47;1.37;;;;;;;18.56;45.55;97048.03;6307073;22;20629;-87
2022/02/04 21:58:13;;;;;;;1.60;1.50;;;;;;;18.71;45.73;97071.44;6308266;22;20198;-84
2022/02/04 22:00:41;;;;;;;1.70;1.60;;;;;;;18.27;45.55;96996.16;6307292;22;20201;-84
2022/02/04 22:03:08;;;;;;;1.47;1.37;;;;;;;18.49;45.74;97035.94;6282176;22;20235;-84
2022/02/04 22:05:36;;;;;;;1.60;1.50;;;;;;;18.58;45.75;97043.00;6257009;22;20202;-85
2022/02/04 22:08:07;;;;;;;1.50;1.40;;;;;;;18.27;45.88;96983.44;6282448;22;20236;-87
2022/02/04 22:32:27;;;;;;;1.50;1.40;;;;;;;18.96;45.82;97102.00;6275762;22;20201;-85
2022/02/04 22:35:04;;;;;;;1.50;1.40;;;;;;;18.51;46.05;97026.69;6288047;22;20195;-85
2022/02/04 22:50:50;;;;;;;1.27;1.27;;;;;;;18.78;46.11;97085.25;6283622;22;20209;-85
2022/02/04 22:58:39;;;;;;;1.40;1.30;;;;;;;18.72;45.73;97075.72;6333853;22;20205;-85
2022/02/04 23:01:06;;;;;;;1.23;1.20;;;;;;;18.69;45.62;97077.31;6256287;22;20209;-85
2022/02/04 23:03:41;;;;;;;1.57;1.47;;;;;;;19.02;45.73;97139.50;6280495;22;20261;-85
2022/02/04 23:06:11;;;;;;;1.57;1.47;;;;;;;18.92;45.96;97123.06;6283079;22;20189;-86
2022/02/04 23:08:41;;;;;;;1.50;1.40;;;;;;;19.01;45.89;97138.63;6307164;22;20248;-85
2022/02/04 23:11:09;;;;;;;1.50;1.40;;;;;;;18.74;45.77;97091.91;6281792;22;20165;-84
2022/02/04 23:14:02;;;;;;;1.80;1.70;;;;;;;18.12;45.75;96988.00;6256562;22;20227;-85
2022/02/04 23:16:47;;;;;;;1.30;1.23;;;;;;;18.69;45.74;97088.38;6266849;22;20178;-85
2022/02/04 23:19:29;;;;;;;1.50;1.40;;;;;;;18.73;45.87;97094.41;6311617;22;20218;-86
2022/02/04 23:22:09;;;;;;;1.50;1.40;;;;;;;18.85;46.05;97126.22;6288167;22;20187;-85
2022/02/04 23:24:51;;;;;;;1.50;1.40;;;;;;;18.64;45.78;97089.00;6310137;22;20506;-85
2022/02/04 23:27:23;;;;;;;1.30;1.20;;;;;;;18.64;45.51;97094.09;6307401;22;20198;-85
2022/02/04 23:51:20;;;;;;;1.20;1.20;;;;;;;18.70;45.85;97198.66;6311411;22;20688;-85
2022/02/04 23:53:47;;;;;;;1.50;1.40;;;;;;;18.33;46.02;97140.50;6306205;22;20174;-85
2022/02/04 23:56:14;;;;;;;1.30;1.20;;;;;;;18.45;45.93;97173.16;6306847;22;20174;-85
